Time;durP1;ratioP1;P1;durP2;ratioP2;P2;SDS_P1;SDS_P2;PMS_P1;PMS_P2;Temp;Humidity;BMP_temperature;BMP_pressure;BME280_temperature;BME280_humidity;BME280_pressure;Samples;Min_cycle;Max_cycle;Signal;HPM_P1;HPM_P2
2021/04/10 00:00:49;;;;;;;6.70;3.25;;;;;;;11.99;35.50;101158.19;5062132;28;20133;-77
2021/04/10 00:03:16;;;;;;;4.45;2.70;;;;;;;12.05;35.94;101157.06;5001508;28;20148;-75
2021/04/10 00:05:42;;;;;;;6.90;2.95;;;;;;;11.54;37.12;101153.00;5002820;28;20128;-76
2021/04/10 00:08:09;;;;;;;5.90;2.83;;;;;;;11.72;35.70;101157.50;5003813;28;20102;-74
2021/04/10 00:10:35;;;;;;;3.97;2.88;;;;;;;11.54;37.20;101148.63;4999569;28;20528;-75
2021/04/10 00:13:02;;;;;;;3.85;3.20;;;;;;;11.48;36.81;101146.28;5001594;28;20038;-73
2021/04/10 00:15:29;;;;;;;3.40;2.22;;;;;;;11.41;36.10;101144.81;5005000;28;20493;-72
2021/04/10 00:17:57;;;;;;;6.57;3.45;;;;;;;11.27;37.20;101141.88;5006469;28;20077;-73
2021/04/10 00:20:25;;;;;;;6.25;4.32;;;;;;;11.49;37.21;101139.28;5005843;28;20045;-74
2021/04/10 00:22:51;;;;;;;2.20;1.80;;;;;;;11.52;36.73;101134.81;5002980;28;20461;-74
2021/04/10 00:25:19;;;;;;;5.03;2.30;;;;;;;11.39;38.13;101133.56;5008168;28;20305;-74
2021/04/10 00:27:46;;;;;;;5.00;2.85;;;;;;;11.52;37.19;101128.72;5006421;28;20038;-74
2021/04/10 00:30:14;;;;;;;6.53;2.35;;;;;;;11.46;36.65;101132.44;4998264;28;20050;-73
2021/04/10 00:32:42;;;;;;;5.35;2.40;;;;;;;11.49;37.42;101127.06;5008296;28;20074;-72
2021/04/10 00:35:09;;;;;;;3.10;2.70;;;;;;;11.35;37.97;101120.72;5007279;28;20121;-73
2021/04/10 00:37:36;;;;;;;11.18;3.63;;;;;;;11.34;37.95;101117.22;5006513;28;20121;-72
2021/04/10 00:40:04;;;;;;;8.38;3.58;;;;;;;11.19;39.06;101123.06;4999385;28;20051;-73
2021/04/10 00:42:30;;;;;;;9.80;3.47;;;;;;;11.54;37.95;101125.13;4995413;28;20121;-72
2021/04/10 00:44:57;;;;;;;5.03;3.05;;;;;;;11.41;37.65;101120.47;4993808;28;20074;-71
2021/04/10 00:47:23;;;;;;;7.45;3.65;;;;;;;11.51;37.34;101125.28;4994590;28;20121;-72
2021/04/10 00:49:50;;;;;;;4.68;2.90;;;;;;;11.34;38.46;101127.66;4998509;28;20042;-73
2021/04/10 00:52:17;;;;;;;6.03;3.03;;;;;;;11.38;37.73;101128.41;5007431;28;20122;-72
2021/04/10 00:54:47;;;;;;;4.30;2.88;;;;;;;11.35;38.62;101139.00;4999291;28;20516;-73
2021/04/10 00:57:14;;;;;;;3.50;2.55;;;;;;;11.36;37.55;101130.25;5010295;28;20400;-75
2021/04/10 00:59:41;;;;;;;4.47;2.25;;;;;;;11.21;37.57;101142.97;5010662;28;20079;-72
2021/04/10 01:02:08;;;;;;;4.18;2.47;;;;;;;11.27;38.38;101141.88;5004187;28;20492;-73
2021/04/10 01:04:35;;;;;;;2.60;2.20;;;;;;;11.35;37.16;101150.28;4998970;28;20070;-74
2021/04/10 01:07:02;;;;;;;6.80;3.00;;;;;;;11.35;37.05;101137.22;5061741;28;20038;-73
2021/04/10 01:09:29;;;;;;;4.20;2.15;;;;;;;11.51;36.93;101138.31;5001809;28;20034;-73
2021/04/10 01:12:16;;;;;;;3.25;2.10;;;;;;;11.42;37.03;101132.63;5000409;28;20036;-73
2021/04/10 01:14:58;;;;;;;5.85;2.22;;;;;;;11.40;36.81;101135.28;4998539;28;20053;-75
2021/04/10 01:17:56;;;;;;;4.38;1.58;;;;;;;11.47;35.90;101134.13;4994093;28;20047;-73
2021/04/10 01:20:55;;;;;;;3.20;2.15;;;;;;;11.36;36.21;101123.25;4992980;28;20135;-72
2021/04/10 01:23:37;;;;;;;4.63;1.70;;;;;;;11.33;37.27;101131.19;5003627;28;20939;-73
2021/04/10 01:26:04;;;;;;;3.75;3.15;;;;;;;11.39;37.37;101130.97;5007481;28;20500;-72
2021/04/10 01:28:54;;;;;;;3.13;2.00;;;;;;;11.35;37.33;101132.00;5007500;28;20044;-73
2021/04/10 01:31:26;;;;;;;3.67;2.15;;;;;;;11.33;37.00;101125.13;4999163;28;20456;-73
2021/04/10 01:33:57;;;;;;;3.72;2.15;;;;;;;11.33;37.79;101122.53;5018629;28;20057;-73
2021/04/10 01:36:31;;;;;;;2.58;1.52;;;;;;;11.32;35.70;101124.28;5003957;28;20056;-73
2021/04/10 01:38:59;;;;;;;2.08;1.48;;;;;;;11.61;35.50;101132.72;4997845;28;20122;-73
2021/04/10 01:41:28;;;;;;;5.57;1.83;;;;;;;11.61;35.80;101125.75;5000807;28;20034;-73
2021/04/10 01:43:57;;;;;;;2.65;1.50;;;;;;;11.55;36.04;101125.97;4994415;28;20046;-73
2021/04/10 01:46:26;;;;;;;3.83;1.70;;;;;;;11.65;35.65;101122.09;4996582;28;20103;-73
2021/04/10 01:48:56;;;;;;;3.03;1.30;;;;;;;11.46;36.48;101124.59;4994775;28;20404;-73
2021/04/10 01:51:24;;;;;;;2.00;1.40;;;;;;;11.43;35.54;101122.09;5008492;28;20080;-73
2021/04/10 01:53:50;;;;;;;1.83;1.50;;;;;;;11.21;36.30;101135.16;4992249;28;20099;-72
2021/04/10 01:56:19;;;;;;;2.53;1.77;;;;;;;11.22;36.99;101130.78;4987950;28;20038;-72
2021/04/10 01:58:54;;;;;;;5.15;2.88;;;;;;;11.29;36.52;101119.16;5001165;28;20415;-73
2021/04/10 02:01:33;;;;;;;4.13;2.25;;;;;;;11.41;36.83;101112.66;4997888;28;20115;-72
2021/04/10 02:04:01;;;;;;;2.63;1.50;;;;;;;11.57;36.66;101108.50;4997713;28;20524;-73
2021/04/10 02:06:29;;;;;;;1.95;1.35;;;;;;;11.51;36.10;101104.38;4994643;28;20048;-73
2021/04/10 02:09:04;;;;;;;6.85;2.47;;;;;;;11.43;36.39;101106.44;4997026;28;20072;-73
2021/04/10 02:12:01;;;;;;;4.40;1.55;;;;;;;11.17;37.88;101094.41;4980972;28;20053;-73
2021/04/10 02:14:37;;;;;;;3.63;1.60;;;;;;;11.31;37.04;101080.81;5015641;28;20057;-73
2021/04/10 02:17:08;;;;;;;2.45;1.40;;;;;;;11.22;37.07;101081.19;4994963;28;20039;-73
2021/04/10 02:19:47;;;;;;;2.42;1.75;;;;;;;11.10;37.42;101079.91;5001477;28;20110;-73
2021/04/10 02:22:15;;;;;;;6.28;2.55;;;;;;;11.07;38.38;101079.16;5003662;28;20042;-73
2021/04/10 02:24:43;;;;;;;6.85;1.60;;;;;;;11.08;38.70;101073.91;5002350;28;20073;-73
2021/04/10 02:27:11;;;;;;;3.15;1.77;;;;;;;10.90;39.38;101074.59;5012327;28;20049;-73
2021/04/10 02:29:47;;;;;;;3.08;2.40;;;;;;;10.80;39.70;101073.25;5000140;28;20038;-73
2021/04/10 02:32:28;;;;;;;3.58;1.77;;;;;;;10.74;39.90;101066.50;5009468;28;20400;-74
2021/04/10 02:35:05;;;;;;;3.28;1.77;;;;;;;10.82;39.42;101069.69;5000896;28;20514;-74
2021/04/10 02:37:34;;;;;;;2.17;1.90;;;;;;;10.91;39.33;101066.72;5007029;28;20912;-74
2021/04/10 02:40:06;;;;;;;2.08;1.55;;;;;;;11.00;39.00;101055.94;4996802;28;20125;-75
2021/04/10 02:42:42;;;;;;;3.38;1.55;;;;;;;11.03;39.56;101054.97;5075661;28;20485;-75
2021/04/10 02:45:10;;;;;;;3.17;2.03;;;;;;;11.07;39.00;101047.84;5007785;28;20125;-74
2021/04/10 02:47:43;;;;;;;2.58;1.90;;;;;;;10.96;39.17;101043.91;4989180;28;20149;-75
2021/04/10 02:50:19;;;;;;;2.65;2.17;;;;;;;11.06;39.92;101043.56;4993184;28;20042;-71
2021/04/10 02:52:49;;;;;;;3.00;2.60;;;;;;;11.07;39.45;101042.63;5006482;28;20144;-71
2021/04/10 02:55:31;;;;;;;4.53;2.47;;;;;;;10.98;39.74;101042.09;5023154;28;20050;-72
2021/04/10 02:58:02;;;;;;;5.22;2.13;;;;;;;10.92;39.53;101039.75;5008913;28;20046;-72
2021/04/10 03:00:30;;;;;;;2.40;2.20;;;;;;;10.81;39.69;101036.66;5094918;28;20057;-71
2021/04/10 03:02:57;;;;;;;5.07;2.33;;;;;;;10.86;38.98;101029.50;5008628;28;20099;-72
2021/04/10 03:05:25;;;;;;;3.08;1.67;;;;;;;10.89;38.29;101032.03;5010477;28;20385;-72
2021/04/10 03:07:53;;;;;;;28.98;4.40;;;;;;;10.81;38.01;101033.22;5006144;28;20042;-71
2021/04/10 03:10:25;;;;;;;4.20;2.22;;;;;;;10.73;36.80;101033.53;5008566;28;20438;-71
2021/04/10 03:12:55;;;;;;;4.95;1.63;;;;;;;10.80;37.09;101026.31;5006469;28;20095;-72
2021/04/10 03:15:26;;;;;;;2.72;1.70;;;;;;;10.76;37.49;101028.19;5008850;28;20393;-71
2021/04/10 03:17:54;;;;;;;2.00;1.75;;;;;;;10.74;38.25;101032.59;5006600;28;20089;-71
2021/04/10 03:20:25;;;;;;;2.47;1.55;;;;;;;10.68;38.29;101028.47;5009249;28;20448;-71
2021/04/10 03:22:55;;;;;;;4.43;1.73;;;;;;;10.67;38.73;101026.78;5010305;28;20050;-71
2021/04/10 03:25:26;;;;;;;3.20;2.10;;;;;;;10.66;39.07;101029.47;5003791;28;20038;-72
2021/04/10 03:27:59;;;;;;;4.85;2.20;;;;;;;10.67;39.38;101037.22;5014324;28;20484;-73
2021/04/10 03:30:26;;;;;;;5.10;1.85;;;;;;;10.70;39.06;101025.81;5003468;28;20046;-73
2021/04/10 03:32:53;;;;;;;4.93;2.03;;;;;;;10.83;37.41;101029.66;4992011;28;20045;-71
2021/04/10 03:35:26;;;;;;;5.72;1.98;;;;;;;10.78;37.88;101034.19;5093084;28;20064;-71
2021/04/10 03:37:56;;;;;;;2.08;1.42;;;;;;;10.78;38.31;101031.59;5006888;28;20073;-71
2021/04/10 03:40:26;;;;;;;3.65;1.63;;;;;;;10.62;37.83;101030.47;5007966;28;20042;-71
2021/04/10 03:42:56;;;;;;;2.08;1.60;;;;;;;10.88;36.49;101034.69;5006427;28;20389;-73
2021/04/10 03:45:29;;;;;;;5.28;3.25;;;;;;;10.82;36.09;101046.22;5092344;28;20058;-72
2021/04/10 03:48:01;;;;;;;4.18;1.70;;;;;;;10.78;36.14;101041.16;5006771;28;20145;-71
2021/04/10 03:50:38;;;;;;;2.95;1.65;;;;;;;10.70;37.03;101049.25;5007949;28;20069;-71
2021/04/10 03:53:06;;;;;;;2.30;1.38;;;;;;;10.83;36.76;101047.06;4988068;28;20175;-73
2021/04/10 03:55:33;;;;;;;1.65;1.50;;;;;;;10.88;37.25;101056.41;4996655;28;20038;-71
2021/04/10 03:58:01;;;;;;;2.45;1.55;;;;;;;10.83;37.46;101055.72;5006209;28;20042;-71
2021/04/10 04:00:29;;;;;;;2.63;1.73;;;;;;;10.72;37.43;101056.13;5007194;28;20061;-71
2021/04/10 04:03:01;;;;;;;2.42;1.90;;;;;;;10.67;36.67;101044.19;5006142;28;20140;-72
2021/04/10 04:05:27;;;;;;;2.75;2.00;;;;;;;10.70;37.60;101047.50;5007826;28;20049;-71
2021/04/10 04:07:54;;;;;;;3.05;1.65;;;;;;;10.77;36.25;101042.94;5007552;28;20119;-72
2021/04/10 04:10:20;;;;;;;1.88;1.67;;;;;;;10.68;36.47;101045.88;5007254;28;20077;-71
2021/04/10 04:12:47;;;;;;;2.00;1.60;;;;;;;10.58;36.79;101041.91;5008208;28;20039;-72
2021/04/10 04:15:13;;;;;;;1.83;1.50;;;;;;;10.41;37.73;101045.16;5008189;28;20565;-73
2021/04/10 04:17:39;;;;;;;5.88;1.42;;;;;;;10.47;37.74;101035.34;4989292;28;20082;-71
2021/04/10 04:20:07;;;;;;;3.53;1.48;;;;;;;10.46;38.68;101043.22;4992066;28;20070;-71
2021/04/10 04:22:33;;;;;;;2.03;1.58;;;;;;;10.55;38.45;101035.06;5009028;28;20054;-69
2021/04/10 04:25:00;;;;;;;8.20;1.70;;;;;;;10.48;38.69;101037.03;5011585;28;20107;-69
2021/04/10 04:27:26;;;;;;;3.47;1.23;;;;;;;10.62;38.64;101038.28;5010726;28;20053;-69
2021/04/10 04:29:54;;;;;;;1.40;1.30;;;;;;;10.35;39.08;101047.97;5012215;28;20133;-69
2021/04/10 04:32:21;;;;;;;2.45;1.67;;;;;;;10.54;39.27;101048.13;5012588;28;20061;-69
2021/04/10 04:34:48;;;;;;;2.75;2.08;;;;;;;10.65;39.11;101059.03;5012672;28;20046;-69
2021/04/10 04:37:15;;;;;;;3.45;1.92;;;;;;;10.57;38.95;101055.88;5007764;28;20046;-69
2021/04/10 04:39:42;;;;;;;2.42;1.60;;;;;;;10.79;38.50;101051.53;5005465;28;20121;-73
2021/04/10 04:42:09;;;;;;;4.40;1.77;;;;;;;10.57;38.60;101061.94;5006425;28;20046;-73
2021/04/10 04:44:35;;;;;;;3.17;2.20;;;;;;;10.69;38.15;101065.81;4991229;28;20066;-73
2021/04/10 04:47:02;;;;;;;3.03;2.10;;;;;;;10.86;37.84;101079.06;4998350;28;20065;-73
2021/04/10 04:49:28;;;;;;;4.68;2.53;;;;;;;10.77;37.87;101083.81;5010590;28;20046;-72
2021/04/10 04:51:56;;;;;;;3.63;2.15;;;;;;;10.73;37.73;101085.69;5010907;28;20050;-68
2021/04/10 04:54:22;;;;;;;4.10;2.38;;;;;;;10.69;38.02;101074.50;5010929;28;20038;-69
2021/04/10 04:56:49;;;;;;;6.60;2.33;;;;;;;10.60;37.28;101081.81;5010987;28;20038;-69
2021/04/10 04:59:16;;;;;;;3.00;2.35;;;;;;;10.64;37.41;101079.03;5010482;28;20099;-69
2021/04/10 05:01:42;;;;;;;6.53;2.40;;;;;;;10.61;37.37;101089.59;5009105;28;20124;-69
2021/04/10 05:04:09;;;;;;;6.70;2.95;;;;;;;10.58;37.74;101087.09;5008368;28;20801;-69
2021/04/10 05:06:35;;;;;;;3.05;2.42;;;;;;;10.62;38.06;101090.44;5007317;28;20373;-70
2021/04/10 05:09:02;;;;;;;3.35;2.45;;;;;;;10.57;37.83;101081.94;5009731;28;20095;-70
2021/04/10 05:11:28;;;;;;;5.38;2.42;;;;;;;10.52;37.54;101078.66;5010041;28;20543;-72
2021/04/10 05:13:55;;;;;;;4.65;2.53;;;;;;;10.51;38.27;101076.94;5010159;28;20050;-71
2021/04/10 05:16:21;;;;;;;6.75;2.10;;;;;;;10.37;38.22;101082.66;5009211;28;20046;-70
2021/04/10 05:18:47;;;;;;;7.28;2.25;;;;;;;10.29;38.80;101082.94;5008490;28;20450;-70
2021/04/10 05:21:14;;;;;;;2.45;1.95;;;;;;;10.31;38.56;101081.13;5010292;28;20427;-71
2021/04/10 05:23:40;;;;;;;5.13;1.90;;;;;;;10.29;38.42;101080.31;5009900;28;20050;-69
2021/04/10 05:26:07;;;;;;;2.90;1.92;;;;;;;10.35;39.03;101084.47;5010622;28;20046;-70
2021/04/10 05:28:34;;;;;;;2.63;1.90;;;;;;;10.44;40.01;101082.38;5009979;28;20046;-71
2021/04/10 05:31:01;;;;;;;3.08;1.92;;;;;;;10.44;40.66;101092.81;5009610;28;20042;-70
2021/04/10 05:33:32;;;;;;;4.00;1.90;;;;;;;10.59;40.10;101096.59;5008673;28;20146;-69
2021/04/10 05:35:59;;;;;;;12.75;2.55;;;;;;;10.86;39.77;101101.69;5010112;28;20060;-69
2021/04/10 05:38:26;;;;;;;11.30;2.10;;;;;;;10.92;39.92;101104.94;5009436;28;20038;-70
2021/04/10 05:40:53;;;;;;;4.35;2.00;;;;;;;10.99;39.76;101106.41;5010154;28;20099;-74
2021/04/10 05:43:21;;;;;;;6.97;2.05;;;;;;;11.04;40.23;101114.06;5008901;28;20561;-74
2021/04/10 05:45:48;;;;;;;8.05;2.50;;;;;;;11.07;40.02;101110.47;5009765;28;20050;-71
2021/04/10 05:48:15;;;;;;;4.45;2.00;;;;;;;11.20;39.95;101101.28;5009595;28;20062;-72
2021/04/10 05:50:41;;;;;;;6.60;2.35;;;;;;;11.15;39.80;101100.59;5009697;28;20049;-70
2021/04/10 05:53:08;;;;;;;6.10;3.50;;;;;;;11.26;39.75;101106.25;4997939;28;20401;-70
2021/04/10 05:55:34;;;;;;;5.95;2.42;;;;;;;11.31;40.08;101099.09;4994961;28;20116;-69
2021/04/10 05:58:01;;;;;;;5.30;2.53;;;;;;;11.37;39.07;101095.41;5000626;28;20115;-70
2021/04/10 06:00:27;;;;;;;6.55;2.30;;;;;;;11.69;37.82;101109.75;5068622;28;20061;-70
2021/04/10 06:02:55;;;;;;;9.65;3.17;;;;;;;11.88;38.17;101099.41;5008607;28;20117;-69
2021/04/10 06:05:22;;;;;;;4.22;3.50;;;;;;;11.83;37.61;101104.88;5004700;28;20058;-70
2021/04/10 06:07:49;;;;;;;10.40;2.92;;;;;;;11.92;36.81;101101.00;5009415;28;20506;-72
2021/04/10 06:10:18;;;;;;;5.35;2.80;;;;;;;11.88;37.08;101108.13;5009442;28;20434;-69
2021/04/10 06:12:45;;;;;;;5.13;3.35;;;;;;;12.02;38.02;101115.38;5009333;28;20050;-69
2021/04/10 06:15:16;;;;;;;3.08;2.40;;;;;;;12.12;37.54;101121.91;5004226;28;20099;-69
2021/04/10 06:17:42;;;;;;;5.15;3.08;;;;;;;12.22;37.05;101118.00;5002640;28;20058;-69
2021/04/10 06:20:10;;;;;;;4.78;3.40;;;;;;;12.33;36.90;101107.09;5006102;28;20042;-70
2021/04/10 06:22:38;;;;;;;6.72;2.85;;;;;;;12.41;36.91;101112.84;5000923;28;20054;-70
2021/04/10 06:25:06;;;;;;;6.38;2.88;;;;;;;12.53;35.63;101111.44;5001735;28;20492;-69
2021/04/10 06:27:36;;;;;;;4.55;2.90;;;;;;;12.55;35.55;101110.44;5007994;28;20132;-69
2021/04/10 06:30:07;;;;;;;5.70;3.45;;;;;;;12.58;35.33;101117.31;5009498;28;20042;-70
2021/04/10 06:32:34;;;;;;;4.97;4.03;;;;;;;12.69;35.90;101111.59;5006678;28;20129;-70
2021/04/10 06:35:01;;;;;;;4.20;2.78;;;;;;;12.83;35.38;101114.44;5008646;28;20045;-73
2021/04/10 06:37:27;;;;;;;3.72;2.88;;;;;;;12.70;35.58;101121.16;5009162;28;20048;-70
2021/04/10 06:39:54;;;;;;;5.65;2.72;;;;;;;12.70;36.17;101123.75;4999997;28;20070;-71
2021/04/10 06:42:21;;;;;;;5.57;2.72;;;;;;;12.94;35.48;101121.78;5005590;28;20045;-70
2021/04/10 06:44:48;;;;;;;4.80;3.45;;;;;;;14.08;34.90;101120.69;5000498;28;20039;-71
2021/04/10 06:47:18;;;;;;;6.22;2.70;;;;;;;15.19;32.07;101112.16;5006158;28;20070;-71
2021/04/10 06:49:45;;;;;;;5.05;3.05;;;;;;;15.90;30.98;101108.16;5002888;28;20133;-75
2021/04/10 06:52:16;;;;;;;15.18;4.07;;;;;;;16.69;29.67;101108.66;5008359;28;20042;-74
2021/04/10 06:54:46;;;;;;;10.82;3.70;;;;;;;17.11;27.67;101103.44;5009434;28;20042;-71
2021/04/10 06:57:21;;;;;;;4.88;3.15;;;;;;;17.66;26.31;101103.34;5009279;28;20036;-73
2021/04/10 07:00:10;;;;;;;14.50;3.95;;;;;;;18.17;25.79;101097.34;5008830;28;20066;-72
2021/04/10 07:02:40;;;;;;;8.30;2.58;;;;;;;18.43;25.81;101098.19;5004412;28;20046;-72
2021/04/10 07:05:07;;;;;;;6.32;2.83;;;;;;;18.36;24.91;101107.47;4998814;28;20046;-76
2021/04/10 07:07:34;;;;;;;8.77;2.97;;;;;;;18.52;24.83;101118.66;4994419;28;20034;-74
2021/04/10 07:10:04;;;;;;;4.15;3.20;;;;;;;18.08;25.74;101119.09;4995619;28;20046;-73
2021/04/10 07:12:30;;;;;;;6.78;3.45;;;;;;;18.14;26.48;101111.59;4992961;28;20451;-74
2021/04/10 07:14:57;;;;;;;10.70;3.40;;;;;;;18.05;25.21;101110.41;4998617;28;20067;-72
2021/04/10 07:17:23;;;;;;;7.65;2.60;;;;;;;17.66;25.53;101107.78;4999860;28;20046;-72
2021/04/10 07:19:50;;;;;;;2.72;2.05;;;;;;;17.15;25.85;101118.09;5004722;28;20054;-74
2021/04/10 07:22:17;;;;;;;14.27;2.55;;;;;;;17.17;25.80;101116.22;5004212;28;20074;-70
2021/04/10 07:24:47;;;;;;;4.28;2.35;;;;;;;17.01;26.48;101121.63;5005728;28;20161;-75
2021/04/10 07:27:23;;;;;;;5.82;1.88;;;;;;;16.82;27.28;101121.06;5004128;28;20061;-71
2021/04/10 07:29:59;;;;;;;5.43;1.90;;;;;;;16.80;26.55;101120.34;5000751;28;20049;-73
2021/04/10 07:32:36;;;;;;;5.30;2.15;;;;;;;16.47;26.77;101124.06;4997728;28;20424;-72
2021/04/10 07:35:08;;;;;;;2.90;1.67;;;;;;;16.33;28.09;101129.31;4995474;28;20043;-73
2021/04/10 07:37:36;;;;;;;4.72;1.90;;;;;;;15.95;27.74;101128.00;4992545;28;20039;-72
2021/04/10 07:40:05;;;;;;;5.20;1.70;;;;;;;16.01;28.60;101123.31;5002347;28;20049;-72
2021/04/10 07:42:34;;;;;;;2.00;1.50;;;;;;;16.64;27.82;101129.13;5006957;28;20069;-73
2021/04/10 07:45:01;;;;;;;2.78;1.65;;;;;;;16.91;27.04;101123.13;5004700;28;20081;-73
2021/04/10 07:47:38;;;;;;;6.38;2.22;;;;;;;17.89;25.88;101109.75;5002409;28;20144;-73
2021/04/10 07:50:16;;;;;;;1.75;1.65;;;;;;;18.76;24.76;101105.59;4997603;28;20046;-74
2021/04/10 07:52:43;;;;;;;16.90;2.10;;;;;;;19.33;24.41;101091.75;5008223;28;20046;-73
2021/04/10 07:55:33;;;;;;;3.03;1.90;;;;;;;18.63;23.55;101097.63;5094166;28;20399;-72
2021/04/10 07:58:29;;;;;;;3.33;1.83;;;;;;;18.21;24.72;101094.38;4998494;28;20043;-73
2021/04/10 08:01:00;;;;;;;5.40;1.98;;;;;;;18.94;24.22;101093.69;5005031;28;20083;-73
2021/04/10 08:03:29;;;;;;;4.32;2.15;;;;;;;19.23;23.76;101094.25;4996605;28;20151;-73
2021/04/10 08:06:05;;;;;;;3.70;1.92;;;;;;;20.10;23.52;101102.78;5078786;28;20045;-73
2021/04/10 08:08:57;;;;;;;4.18;2.00;;;;;;;20.76;22.66;101109.13;4995186;28;20042;-73
2021/04/10 08:11:41;;;;;;;6.70;1.90;;;;;;;21.07;21.36;101102.22;4997834;28;20050;-74
2021/04/10 08:14:10;;;;;;;4.38;1.60;;;;;;;21.39;21.35;101102.28;4998034;28;20129;-74
2021/04/10 08:16:42;;;;;;;2.17;1.98;;;;;;;20.52;21.44;101105.78;5003047;28;20046;-72
2021/04/10 08:19:09;;;;;;;3.65;2.03;;;;;;;20.64;21.40;101112.75;4997355;28;20100;-74
2021/04/10 08:21:37;;;;;;;2.67;1.65;;;;;;;21.03;21.28;101103.44;4999549;28;20099;-74
2021/04/10 08:24:22;;;;;;;4.07;2.00;;;;;;;21.02;21.28;101107.06;4994850;28;20047;-76
2021/04/10 08:26:51;;;;;;;2.40;1.50;;;;;;;19.92;21.85;101104.16;4996130;28;20050;-69
2021/04/10 08:29:18;;;;;;;3.10;1.60;;;;;;;20.99;21.57;101106.47;4993428;28;20031;-72
2021/04/10 08:31:46;;;;;;;2.28;1.75;;;;;;;19.71;22.40;101109.28;5004851;28;20042;-71
2021/04/10 08:34:13;;;;;;;3.05;2.08;;;;;;;20.22;22.47;101101.00;5012636;28;20393;-71
2021/04/10 08:36:42;;;;;;;4.70;2.00;;;;;;;20.63;21.80;101100.47;5010397;28;20049;-72
2021/04/10 08:39:14;;;;;;;1.73;1.30;;;;;;;21.49;21.15;101106.84;5010802;28;20540;-71
2021/04/10 08:41:41;;;;;;;2.72;1.50;;;;;;;20.61;21.14;101102.38;5011189;28;20069;-70
2021/04/10 08:44:09;;;;;;;3.17;2.20;;;;;;;20.48;21.12;101109.63;5011516;28;20558;-70
2021/04/10 08:46:41;;;;;;;4.80;1.77;;;;;;;19.10;21.98;101104.00;5011225;28;20054;-69
2021/04/10 08:49:07;;;;;;;2.92;1.67;;;;;;;18.48;22.90;101102.22;5011282;28;20057;-70
2021/04/10 08:51:38;;;;;;;4.47;2.45;;;;;;;18.41;23.60;101116.78;5008889;28;20123;-69
2021/04/10 08:54:13;;;;;;;5.80;1.98;;;;;;;18.77;23.55;101108.13;5009465;28;20042;-70
2021/04/10 08:56:40;;;;;;;;;;;;;;;18.08;23.93;101116.44;5007969;28;20125;-70
2021/04/10 08:59:14;;;;;;;6.45;1.70;;;;;;;18.08;24.33;101113.81;5010992;28;19922;-69
2021/04/10 09:01:43;;;;;;;5.22;1.70;;;;;;;18.17;24.88;101121.09;5001941;28;20127;-69
2021/04/10 09:04:12;;;;;;;10.52;2.33;;;;;;;17.83;25.09;101119.88;4990161;28;20133;-70
2021/04/10 09:06:38;;;;;;;8.75;3.28;;;;;;;17.19;25.73;101112.53;4994280;28;20042;-69
2021/04/10 09:09:10;;;;;;;3.15;2.08;;;;;;;17.14;25.71;101111.16;5010571;28;20052;-69
2021/04/10 09:11:44;;;;;;;6.90;2.03;;;;;;;17.07;26.21;101109.84;5010493;28;20492;-69
2021/04/10 09:14:13;;;;;;;6.45;2.28;;;;;;;16.88;26.62;101121.53;5010600;28;20416;-69
2021/04/10 09:16:51;;;;;;;7.40;2.35;;;;;;;16.86;26.72;101115.53;5010067;28;20085;-71
2021/04/10 09:19:20;;;;;;;5.20;2.05;;;;;;;17.08;26.90;101117.66;5010471;28;20540;-70
2021/04/10 09:21:58;;;;;;;4.75;1.95;;;;;;;16.55;27.24;101119.16;5008773;28;20129;-70
2021/04/10 09:24:28;;;;;;;6.65;2.05;;;;;;;16.53;27.57;101115.78;5011173;28;20489;-70
2021/04/10 09:27:02;;;;;;;9.50;2.15;;;;;;;16.54;27.91;101112.22;5010639;28;20042;-70
2021/04/10 09:29:40;;;;;;;6.07;2.10;;;;;;;17.01;27.45;101109.28;4992506;28;20049;-69
2021/04/10 09:32:08;;;;;;;42.63;5.10;;;;;;;17.12;27.42;101116.50;4991255;28;20133;-69
2021/04/10 09:34:52;;;;;;;8.55;2.72;;;;;;;17.14;26.87;101111.97;5007245;28;20384;-69
2021/04/10 09:37:21;;;;;;;8.40;2.88;;;;;;;16.56;27.19;101120.00;5009357;28;20081;-69
2021/04/10 09:39:57;;;;;;;8.15;2.10;;;;;;;16.75;27.29;101121.47;5010086;28;20103;-70
2021/04/10 09:45:05;;;;;;;5.97;2.28;;;;;;;16.86;27.69;101122.56;5010352;28;20071;-70
2021/04/10 09:48:10;;;;;;;2.65;2.00;;;;;;;16.84;27.73;101120.03;5008621;28;20066;-70
2021/04/10 09:51:00;;;;;;;14.30;2.83;;;;;;;16.62;28.26;101114.34;5050457;28;20124;-70
2021/04/10 09:53:28;;;;;;;4.35;2.38;;;;;;;16.52;28.59;101116.72;5006874;28;20045;-70
2021/04/10 09:55:59;;;;;;;11.18;2.75;;;;;;;16.58;29.37;101119.00;5010520;28;20073;-69
2021/04/10 09:58:31;;;;;;;5.15;2.67;;;;;;;16.75;28.35;101116.19;5009536;28;20069;-70
2021/04/10 10:01:03;;;;;;;6.47;2.10;;;;;;;16.59;28.77;101115.41;5010189;28;20050;-69
2021/04/10 10:03:30;;;;;;;5.03;2.03;;;;;;;16.33;28.62;101114.34;5008924;28;20042;-69
2021/04/10 10:06:17;;;;;;;5.70;2.28;;;;;;;16.38;29.03;101111.44;5010331;28;20428;-69
2021/04/10 10:08:44;;;;;;;9.40;2.58;;;;;;;16.36;29.54;101116.81;5005408;28;20042;-70
2021/04/10 10:11:12;;;;;;;9.05;2.65;;;;;;;16.39;29.44;101113.97;5008699;28;20037;-70
2021/04/10 10:13:39;;;;;;;6.25;2.95;;;;;;;16.23;30.42;101110.59;5009124;28;20609;-70
2021/04/10 10:16:06;;;;;;;8.30;4.53;;;;;;;16.11;31.23;101114.78;5009023;28;20042;-70
2021/04/10 10:18:38;;;;;;;7.68;3.72;;;;;;;16.21;32.01;101115.09;5008220;28;20149;-70
2021/04/10 10:21:09;;;;;;;9.10;3.92;;;;;;;16.18;32.60;101120.53;5008677;28;20091;-70
2021/04/10 10:23:46;;;;;;;8.82;3.67;;;;;;;15.98;34.04;101124.38;5009541;28;20080;-69
2021/04/10 10:26:18;;;;;;;15.65;4.35;;;;;;;16.08;34.07;101125.50;5008880;28;20144;-70
2021/04/10 10:29:04;;;;;;;8.52;3.58;;;;;;;15.91;34.85;101117.75;5009519;28;20133;-70
2021/04/10 10:31:39;;;;;;;9.45;3.78;;;;;;;15.79;32.70;101118.47;4989935;28;20047;-69
2021/04/10 10:34:11;;;;;;;8.68;3.83;;;;;;;16.02;32.20;101119.75;4990699;28;20069;-70
2021/04/10 10:36:40;;;;;;;7.38;4.03;;;;;;;16.17;32.60;101117.06;5008895;28;20038;-70
2021/04/10 10:39:22;;;;;;;8.27;3.53;;;;;;;16.19;33.55;101112.56;5003754;28;20462;-70
2021/04/10 10:41:48;;;;;;;12.10;4.35;;;;;;;16.16;33.83;101117.16;5007265;28;20049;-69
2021/04/10 10:44:18;;;;;;;10.60;4.68;;;;;;;15.88;33.13;101110.91;5008724;28;20042;-69
2021/04/10 10:46:45;;;;;;;10.32;4.75;;;;;;;15.60;33.33;101103.72;5008077;28;20042;-69
2021/04/10 10:49:12;;;;;;;5.60;4.65;;;;;;;15.69;32.88;101097.97;5009270;28;20042;-68
2021/04/10 10:51:41;;;;;;;8.93;3.97;;;;;;;15.69;32.84;101090.06;5008305;28;20437;-70
2021/04/10 10:54:08;;;;;;;11.45;4.15;;;;;;;15.83;33.31;101083.19;5006741;28;20694;-70
2021/04/10 10:56:35;;;;;;;11.48;3.90;;;;;;;15.92;32.35;101077.38;5009560;28;20107;-70
2021/04/10 10:59:05;;;;;;;10.13;4.63;;;;;;;16.18;32.41;101081.06;5008869;28;20126;-70
2021/04/10 11:01:31;;;;;;;5.72;4.13;;;;;;;16.15;31.56;101083.91;5009347;28;20060;-70
2021/04/10 11:04:05;;;;;;;8.80;4.07;;;;;;;16.24;31.54;101089.47;5008324;28;20052;-70
2021/04/10 11:06:39;;;;;;;8.73;4.50;;;;;;;16.24;31.68;101085.97;5009936;28;20049;-69
2021/04/10 11:09:08;;;;;;;15.48;9.32;;;;;;;16.14;31.72;101088.31;5007620;28;20071;-72
2021/04/10 11:11:40;;;;;;;11.45;5.88;;;;;;;15.73;32.13;101089.91;5008705;28;20042;-71
2021/04/10 11:14:08;;;;;;;7.85;5.22;;;;;;;15.88;32.47;101091.66;5007703;28;20042;-70
2021/04/10 11:16:42;;;;;;;5.72;4.22;;;;;;;15.80;32.68;101091.25;5009116;28;20103;-70
2021/04/10 11:19:09;;;;;;;10.95;5.90;;;;;;;15.97;33.18;101091.09;5007549;28;20103;-71
2021/04/10 11:21:36;;;;;;;11.35;8.75;;;;;;;15.77;32.53;101078.28;5008940;28;20049;-70
2021/04/10 11:24:12;;;;;;;11.88;6.82;;;;;;;15.81;31.57;101077.16;5007604;28;20057;-72
2021/04/10 11:26:40;;;;;;;8.10;6.13;;;;;;;15.80;32.56;101075.47;5008994;28;20056;-72
2021/04/10 11:29:27;;;;;;;9.65;5.13;;;;;;;16.07;32.96;101071.19;5006633;28;20070;-71
2021/04/10 11:32:05;;;;;;;17.63;7.45;;;;;;;16.15;33.37;101061.06;5007535;28;20126;-72
2021/04/10 11:34:37;;;;;;;22.45;12.32;;;;;;;16.12;34.41;101068.28;5007106;28;20034;-72
2021/04/10 11:37:07;;;;;;;16.40;9.02;;;;;;;16.08;33.40;101067.63;4989405;28;20401;-74
2021/04/10 11:40:00;;;;;;;13.30;6.75;;;;;;;16.21;34.00;101065.97;4989170;28;20082;-71
2021/04/10 11:42:30;;;;;;;9.88;5.25;;;;;;;15.83;34.04;101052.47;4998380;28;20480;-71